sensor_id;sensor_type;location;lat;lon;timestamp;P1;durP1;ratioP1;P2;durP2;ratioP2
35372;SDS011;21476;51.652;7.852;2022-09-24T00:01:53;9.88;;;4.82;;
35372;SDS011;21476;51.652;7.852;2022-09-24T00:04:19;8.93;;;5.05;;
35372;SDS011;21476;51.652;7.852;2022-09-24T00:06:49;8.88;;;5.05;;
35372;SDS011;21476;51.652;7.852;2022-09-24T00:09:15;8.32;;;4.75;;
35372;SDS011;21476;51.652;7.852;2022-09-24T00:11:45;12.65;;;5.00;;
35372;SDS011;21476;51.652;7.852;2022-09-24T00:14:16;7.82;;;4.95;;
35372;SDS011;21476;51.652;7.852;2022-09-24T00:16:43;8.82;;;4.60;;
35372;SDS011;21476;51.652;7.852;2022-09-24T00:19:09;8.82;;;4.88;;
35372;SDS011;21476;51.652;7.852;2022-09-24T00:21:37;8.75;;;5.05;;
35372;SDS011;21476;51.652;7.852;2022-09-24T00:24:05;12.82;;;6.13;;
35372;SDS011;21476;51.652;7.852;2022-09-24T00:26:33;9.85;;;5.32;;
35372;SDS011;21476;51.652;7.852;2022-09-24T00:29:15;7.38;;;5.03;;
35372;SDS011;21476;51.652;7.852;2022-09-24T00:31:43;7.75;;;4.70;;
35372;SDS011;21476;51.652;7.852;2022-09-24T00:34:09;9.35;;;5.05;;
35372;SDS011;21476;51.652;7.852;2022-09-24T00:36:35;8.48;;;4.90;;
35372;SDS011;21476;51.652;7.852;2022-09-24T00:39:01;8.98;;;4.95;;
35372;SDS011;21476;51.652;7.852;2022-09-24T00:41:31;9.13;;;5.30;;
35372;SDS011;21476;51.652;7.852;2022-09-24T00:43:59;9.30;;;5.53;;
35372;SDS011;21476;51.652;7.852;2022-09-24T00:46:43;8.93;;;5.15;;
35372;SDS011;21476;51.652;7.852;2022-09-24T00:49:18;10.77;;;6.03;;
35372;SDS011;21476;51.652;7.852;2022-09-24T00:51:44;9.13;;;5.63;;
35372;SDS011;21476;51.652;7.852;2022-09-24T00:54:16;8.57;;;5.22;;
35372;SDS011;21476;51.652;7.852;2022-09-24T00:56:45;10.02;;;4.75;;
35372;SDS011;21476;51.652;7.852;2022-09-24T00:59:14;9.80;;;5.40;;
35372;SDS011;21476;51.652;7.852;2022-09-24T01:01:42;8.57;;;5.18;;
35372;SDS011;21476;51.652;7.852;2022-09-24T01:04:10;11.40;;;5.60;;
35372;SDS011;21476;51.652;7.852;2022-09-24T01:06:36;10.15;;;5.57;;
35372;SDS011;21476;51.652;7.852;2022-09-24T01:09:02;7.03;;;4.82;;
35372;SDS011;21476;51.652;7.852;2022-09-24T01:14:13;7.55;;;4.78;;
35372;SDS011;21476;51.652;7.852;2022-09-24T01:22:13;8.82;;;4.68;;
35372;SDS011;21476;51.652;7.852;2022-09-24T01:30:00;8.82;;;4.55;;
35372;SDS011;21476;51.652;7.852;2022-09-24T01:32:32;10.60;;;5.38;;
35372;SDS011;21476;51.652;7.852;2022-09-24T01:37:48;8.80;;;4.93;;
35372;SDS011;21476;51.652;7.852;2022-09-24T01:40:18;7.63;;;5.10;;
35372;SDS011;21476;51.652;7.852;2022-09-24T01:42:46;10.32;;;4.70;;
35372;SDS011;21476;51.652;7.852;2022-09-24T01:45:14;7.30;;;4.68;;
35372;SDS011;21476;51.652;7.852;2022-09-24T01:47:41;9.23;;;5.20;;
35372;SDS011;21476;51.652;7.852;2022-09-24T01:50:09;14.27;;;5.57;;
35372;SDS011;21476;51.652;7.852;2022-09-24T01:52:56;10.48;;;6.22;;
35372;SDS011;21476;51.652;7.852;2022-09-24T01:55:27;10.40;;;5.72;;
35372;SDS011;21476;51.652;7.852;2022-09-24T01:58:02;8.87;;;5.77;;
35372;SDS011;21476;51.652;7.852;2022-09-24T02:00:31;9.65;;;6.25;;
35372;SDS011;21476;51.652;7.852;2022-09-24T02:02:59;10.68;;;6.60;;
35372;SDS011;21476;51.652;7.852;2022-09-24T02:10:46;10.45;;;5.88;;
35372;SDS011;21476;51.652;7.852;2022-09-24T02:13:20;10.40;;;5.97;;
35372;SDS011;21476;51.652;7.852;2022-09-24T02:15:51;9.75;;;5.80;;
35372;SDS011;21476;51.652;7.852;2022-09-24T02:18:22;8.55;;;6.07;;
35372;SDS011;21476;51.652;7.852;2022-09-24T02:20:53;11.48;;;6.40;;
35372;SDS011;21476;51.652;7.852;2022-09-24T02:23:20;14.52;;;5.63;;
35372;SDS011;21476;51.652;7.852;2022-09-24T02:25:54;11.07;;;6.00;;
35372;SDS011;21476;51.652;7.852;2022-09-24T02:28:23;9.35;;;5.97;;
35372;SDS011;21476;51.652;7.852;2022-09-24T02:30:51;9.57;;;6.47;;
35372;SDS011;21476;51.652;7.852;2022-09-24T02:33:23;12.40;;;6.25;;
35372;SDS011;21476;51.652;7.852;2022-09-24T02:36:09;11.98;;;5.97;;
35372;SDS011;21476;51.652;7.852;2022-09-24T02:38:36;10.68;;;6.10;;
35372;SDS011;21476;51.652;7.852;2022-09-24T02:41:01;12.57;;;6.93;;
35372;SDS011;21476;51.652;7.852;2022-09-24T02:43:28;13.15;;;7.22;;
35372;SDS011;21476;51.652;7.852;2022-09-24T02:45:54;10.27;;;7.22;;
35372;SDS011;21476;51.652;7.852;2022-09-24T02:48:20;12.50;;;7.35;;
35372;SDS011;21476;51.652;7.852;2022-09-24T02:50:45;13.40;;;7.68;;
35372;SDS011;21476;51.652;7.852;2022-09-24T02:53:11;11.23;;;8.02;;
35372;SDS011;21476;51.652;7.852;2022-09-24T02:55:37;18.02;;;7.95;;
35372;SDS011;21476;51.652;7.852;2022-09-24T02:58:02;15.02;;;8.20;;
35372;SDS011;21476;51.652;7.852;2022-09-24T03:00:28;14.73;;;9.63;;
35372;SDS011;21476;51.652;7.852;2022-09-24T03:02:54;14.82;;;9.50;;
35372;SDS011;21476;51.652;7.852;2022-09-24T03:05:19;13.73;;;9.60;;
35372;SDS011;21476;51.652;7.852;2022-09-24T03:07:45;16.38;;;11.95;;
35372;SDS011;21476;51.652;7.852;2022-09-24T03:10:11;18.70;;;12.98;;
35372;SDS011;21476;51.652;7.852;2022-09-24T03:12:37;18.33;;;12.60;;
35372;SDS011;21476;51.652;7.852;2022-09-24T03:15:03;22.42;;;13.50;;
35372;SDS011;21476;51.652;7.852;2022-09-24T03:17:29;21.27;;;13.85;;
35372;SDS011;21476;51.652;7.852;2022-09-24T03:19:54;18.92;;;13.38;;
35372;SDS011;21476;51.652;7.852;2022-09-24T03:22:20;18.42;;;13.05;;
35372;SDS011;21476;51.652;7.852;2022-09-24T03:24:46;21.25;;;13.50;;
35372;SDS011;21476;51.652;7.852;2022-09-24T03:27:11;21.20;;;14.70;;
35372;SDS011;21476;51.652;7.852;2022-09-24T03:29:37;22.40;;;14.30;;
35372;SDS011;21476;51.652;7.852;2022-09-24T03:32:23;20.25;;;15.02;;
35372;SDS011;21476;51.652;7.852;2022-09-24T03:34:48;21.77;;;14.75;;
35372;SDS011;21476;51.652;7.852;2022-09-24T03:37:14;20.05;;;14.93;;
35372;SDS011;21476;51.652;7.852;2022-09-24T03:39:39;20.45;;;14.98;;
35372;SDS011;21476;51.652;7.852;2022-09-24T03:42:05;21.60;;;15.43;;
35372;SDS011;21476;51.652;7.852;2022-09-24T03:44:30;21.60;;;15.93;;
35372;SDS011;21476;51.652;7.852;2022-09-24T03:46:56;20.13;;;14.52;;
35372;SDS011;21476;51.652;7.852;2022-09-24T03:49:22;22.23;;;16.17;;
35372;SDS011;21476;51.652;7.852;2022-09-24T03:51:48;21.83;;;15.82;;
35372;SDS011;21476;51.652;7.852;2022-09-24T03:54:14;25.73;;;16.02;;
35372;SDS011;21476;51.652;7.852;2022-09-24T03:56:40;24.52;;;17.35;;
35372;SDS011;21476;51.652;7.852;2022-09-24T03:59:08;25.40;;;17.35;;
35372;SDS011;21476;51.652;7.852;2022-09-24T04:01:35;23.35;;;16.50;;
35372;SDS011;21476;51.652;7.852;2022-09-24T04:04:01;21.95;;;16.08;;
35372;SDS011;21476;51.652;7.852;2022-09-24T04:06:28;21.83;;;14.82;;
35372;SDS011;21476;51.652;7.852;2022-09-24T04:08:53;21.23;;;16.17;;
35372;SDS011;21476;51.652;7.852;2022-09-24T04:11:19;25.60;;;16.40;;
35372;SDS011;21476;51.652;7.852;2022-09-24T04:13:46;26.40;;;16.25;;
35372;SDS011;21476;51.652;7.852;2022-09-24T04:16:11;22.17;;;16.25;;
35372;SDS011;21476;51.652;7.852;2022-09-24T04:18:37;23.17;;;16.48;;
35372;SDS011;21476;51.652;7.852;2022-09-24T04:21:03;23.92;;;16.63;;
35372;SDS011;21476;51.652;7.852;2022-09-24T04:23:30;26.05;;;16.20;;
35372;SDS011;21476;51.652;7.852;2022-09-24T04:25:56;23.08;;;16.02;;
35372;SDS011;21476;51.652;7.852;2022-09-24T04:28:23;24.45;;;16.90;;
35372;SDS011;21476;51.652;7.852;2022-09-24T04:30:49;26.15;;;16.73;;
35372;SDS011;21476;51.652;7.852;2022-09-24T04:33:15;21.10;;;16.55;;
35372;SDS011;21476;51.652;7.852;2022-09-24T04:35:42;23.05;;;15.43;;
35372;SDS011;21476;51.652;7.852;2022-09-24T04:38:10;22.42;;;16.70;;
35372;SDS011;21476;51.652;7.852;2022-09-24T04:40:35;25.33;;;17.55;;
35372;SDS011;21476;51.652;7.852;2022-09-24T04:43:02;27.60;;;19.40;;
35372;SDS011;21476;51.652;7.852;2022-09-24T04:45:30;25.52;;;19.13;;
35372;SDS011;21476;51.652;7.852;2022-09-24T04:47:56;24.13;;;17.15;;
35372;SDS011;21476;51.652;7.852;2022-09-24T04:50:28;23.80;;;18.00;;
35372;SDS011;21476;51.652;7.852;2022-09-24T04:52:57;23.92;;;17.58;;
35372;SDS011;21476;51.652;7.852;2022-09-24T04:55:23;28.60;;;17.63;;
35372;SDS011;21476;51.652;7.852;2022-09-24T04:57:49;25.98;;;19.20;;
35372;SDS011;21476;51.652;7.852;2022-09-24T05:00:15;26.90;;;18.65;;
35372;SDS011;21476;51.652;7.852;2022-09-24T05:02:43;26.20;;;17.50;;
35372;SDS011;21476;51.652;7.852;2022-09-24T05:05:10;25.40;;;19.17;;
35372;SDS011;21476;51.652;7.852;2022-09-24T05:07:36;27.38;;;18.15;;
35372;SDS011;21476;51.652;7.852;2022-09-24T05:10:02;26.27;;;18.30;;
35372;SDS011;21476;51.652;7.852;2022-09-24T05:12:28;24.98;;;19.02;;
35372;SDS011;21476;51.652;7.852;2022-09-24T05:14:54;32.00;;;20.30;;
35372;SDS011;21476;51.652;7.852;2022-09-24T05:17:19;30.38;;;20.30;;
35372;SDS011;21476;51.652;7.852;2022-09-24T05:19:45;27.80;;;19.23;;
35372;SDS011;21476;51.652;7.852;2022-09-24T05:22:11;29.42;;;20.02;;
35372;SDS011;21476;51.652;7.852;2022-09-24T05:24:36;31.38;;;21.90;;
35372;SDS011;21476;51.652;7.852;2022-09-24T05:27:02;31.40;;;21.85;;
35372;SDS011;21476;51.652;7.852;2022-09-24T05:29:41;29.42;;;20.92;;
35372;SDS011;21476;51.652;7.852;2022-09-24T05:32:14;31.50;;;22.42;;
35372;SDS011;21476;51.652;7.852;2022-09-24T05:34:42;33.55;;;22.30;;
35372;SDS011;21476;51.652;7.852;2022-09-24T05:37:08;31.33;;;21.60;;
35372;SDS011;21476;51.652;7.852;2022-09-24T05:39:35;29.48;;;22.50;;
35372;SDS011;21476;51.652;7.852;2022-09-24T05:42:00;32.42;;;23.55;;
35372;SDS011;21476;51.652;7.852;2022-09-24T05:44:29;29.80;;;23.23;;
35372;SDS011;21476;51.652;7.852;2022-09-24T05:46:56;33.20;;;22.45;;
35372;SDS011;21476;51.652;7.852;2022-09-24T05:49:22;31.20;;;23.65;;
35372;SDS011;21476;51.652;7.852;2022-09-24T05:51:48;32.10;;;23.60;;
35372;SDS011;21476;51.652;7.852;2022-09-24T05:54:15;35.22;;;24.15;;
35372;SDS011;21476;51.652;7.852;2022-09-24T05:56:41;32.78;;;22.98;;
35372;SDS011;21476;51.652;7.852;2022-09-24T05:59:08;31.38;;;23.65;;
35372;SDS011;21476;51.652;7.852;2022-09-24T06:01:34;32.10;;;24.45;;
35372;SDS011;21476;51.652;7.852;2022-09-24T06:03:59;31.45;;;23.25;;
35372;SDS011;21476;51.652;7.852;2022-09-24T06:06:26;31.30;;;22.27;;
35372;SDS011;21476;51.652;7.852;2022-09-24T06:08:52;28.35;;;20.73;;
35372;SDS011;21476;51.652;7.852;2022-09-24T06:11:19;31.77;;;21.98;;
35372;SDS011;21476;51.652;7.852;2022-09-24T06:13:46;26.90;;;21.15;;
35372;SDS011;21476;51.652;7.852;2022-09-24T06:16:15;28.48;;;20.90;;
35372;SDS011;21476;51.652;7.852;2022-09-24T06:18:42;29.30;;;20.70;;
35372;SDS011;21476;51.652;7.852;2022-09-24T06:21:12;29.88;;;20.10;;
35372;SDS011;21476;51.652;7.852;2022-09-24T06:23:40;24.45;;;17.73;;
35372;SDS011;21476;51.652;7.852;2022-09-24T06:26:06;25.33;;;17.83;;
35372;SDS011;21476;51.652;7.852;2022-09-24T06:28:34;27.23;;;18.38;;
35372;SDS011;21476;51.652;7.852;2022-09-24T06:31:01;28.65;;;17.92;;
35372;SDS011;21476;51.652;7.852;2022-09-24T06:33:26;26.58;;;19.17;;
35372;SDS011;21476;51.652;7.852;2022-09-24T06:35:52;26.90;;;16.88;;
35372;SDS011;21476;51.652;7.852;2022-09-24T06:38:18;22.48;;;17.38;;
35372;SDS011;21476;51.652;7.852;2022-09-24T06:40:45;26.13;;;17.00;;
35372;SDS011;21476;51.652;7.852;2022-09-24T06:43:12;22.02;;;16.88;;
35372;SDS011;21476;51.652;7.852;2022-09-24T06:45:38;23.58;;;17.77;;
35372;SDS011;21476;51.652;7.852;2022-09-24T06:48:07;28.08;;;18.48;;
35372;SDS011;21476;51.652;7.852;2022-09-24T06:50:37;25.75;;;18.50;;
35372;SDS011;21476;51.652;7.852;2022-09-24T06:53:05;24.33;;;16.23;;
35372;SDS011;21476;51.652;7.852;2022-09-24T06:55:31;23.83;;;17.17;;
35372;SDS011;21476;51.652;7.852;2022-09-24T06:58:07;26.33;;;17.05;;
35372;SDS011;21476;51.652;7.852;2022-09-24T07:00:38;23.13;;;15.80;;
35372;SDS011;21476;51.652;7.852;2022-09-24T07:03:14;23.15;;;16.58;;
35372;SDS011;21476;51.652;7.852;2022-09-24T07:05:40;23.05;;;15.18;;
35372;SDS011;21476;51.652;7.852;2022-09-24T07:08:06;26.48;;;16.40;;
35372;SDS011;21476;51.652;7.852;2022-09-24T07:10:31;20.40;;;15.43;;
35372;SDS011;21476;51.652;7.852;2022-09-24T07:12:57;19.73;;;15.65;;
35372;SDS011;21476;51.652;7.852;2022-09-24T07:15:23;22.98;;;16.20;;
35372;SDS011;21476;51.652;7.852;2022-09-24T07:17:53;25.30;;;16.65;;
35372;SDS011;21476;51.652;7.852;2022-09-24T07:20:19;23.08;;;14.85;;
35372;SDS011;21476;51.652;7.852;2022-09-24T07:22:45;20.65;;;14.60;;
35372;SDS011;21476;51.652;7.852;2022-09-24T07:25:11;20.67;;;15.57;;
35372;SDS011;21476;51.652;7.852;2022-09-24T07:27:37;21.55;;;16.13;;
35372;SDS011;21476;51.652;7.852;2022-09-24T07:30:04;22.42;;;16.60;;
35372;SDS011;21476;51.652;7.852;2022-09-24T07:32:31;21.50;;;15.07;;
35372;SDS011;21476;51.652;7.852;2022-09-24T07:34:56;22.85;;;14.85;;
35372;SDS011;21476;51.652;7.852;2022-09-24T07:37:22;22.67;;;15.18;;
35372;SDS011;21476;51.652;7.852;2022-09-24T07:39:48;20.98;;;15.82;;
35372;SDS011;21476;51.652;7.852;2022-09-24T07:42:13;21.48;;;15.77;;
35372;SDS011;21476;51.652;7.852;2022-09-24T07:44:39;19.90;;;15.40;;
35372;SDS011;21476;51.652;7.852;2022-09-24T07:47:04;26.98;;;16.73;;
35372;SDS011;21476;51.652;7.852;2022-09-24T07:49:30;19.10;;;14.73;;
35372;SDS011;21476;51.652;7.852;2022-09-24T07:51:57;23.98;;;15.50;;
35372;SDS011;21476;51.652;7.852;2022-09-24T07:54:25;21.02;;;16.10;;
35372;SDS011;21476;51.652;7.852;2022-09-24T07:56:51;21.60;;;16.27;;
35372;SDS011;21476;51.652;7.852;2022-09-24T07:59:17;22.70;;;16.00;;
35372;SDS011;21476;51.652;7.852;2022-09-24T08:01:44;26.90;;;17.73;;
35372;SDS011;21476;51.652;7.852;2022-09-24T08:04:10;26.88;;;17.17;;
35372;SDS011;21476;51.652;7.852;2022-09-24T08:06:35;24.92;;;17.10;;
35372;SDS011;21476;51.652;7.852;2022-09-24T08:09:01;22.48;;;16.33;;
35372;SDS011;21476;51.652;7.852;2022-09-24T08:11:28;23.17;;;16.17;;
35372;SDS011;21476;51.652;7.852;2022-09-24T08:13:54;25.95;;;16.90;;
35372;SDS011;21476;51.652;7.852;2022-09-24T08:16:20;22.20;;;15.70;;
35372;SDS011;21476;51.652;7.852;2022-09-24T08:18:46;21.35;;;15.60;;
35372;SDS011;21476;51.652;7.852;2022-09-24T08:21:11;24.42;;;16.60;;
35372;SDS011;21476;51.652;7.852;2022-09-24T08:23:39;23.10;;;15.93;;
35372;SDS011;21476;51.652;7.852;2022-09-24T08:26:09;22.83;;;15.65;;
35372;SDS011;21476;51.652;7.852;2022-09-24T08:28:35;26.45;;;17.58;;
35372;SDS011;21476;51.652;7.852;2022-09-24T08:31:02;21.48;;;16.38;;
35372;SDS011;21476;51.652;7.852;2022-09-24T08:33:33;23.05;;;17.33;;
35372;SDS011;21476;51.652;7.852;2022-09-24T08:35:59;25.15;;;16.67;;
35372;SDS011;21476;51.652;7.852;2022-09-24T08:38:25;20.48;;;15.38;;
35372;SDS011;21476;51.652;7.852;2022-09-24T08:40:53;24.73;;;17.92;;
35372;SDS011;21476;51.652;7.852;2022-09-24T08:47:04;21.05;;;15.73;;
35372;SDS011;21476;51.652;7.852;2022-09-24T08:49:54;23.13;;;15.88;;
35372;SDS011;21476;51.652;7.852;2022-09-24T08:55:17;24.00;;;16.42;;
35372;SDS011;21476;51.652;7.852;2022-09-24T08:57:59;22.30;;;15.63;;
35372;SDS011;21476;51.652;7.852;2022-09-24T09:00:39;22.75;;;15.77;;
35372;SDS011;21476;51.652;7.852;2022-09-24T09:03:29;23.85;;;15.65;;
35372;SDS011;21476;51.652;7.852;2022-09-24T09:06:00;22.90;;;16.95;;
35372;SDS011;21476;51.652;7.852;2022-09-24T09:08:34;22.13;;;16.00;;
35372;SDS011;21476;51.652;7.852;2022-09-24T09:11:04;22.90;;;15.00;;
35372;SDS011;21476;51.652;7.852;2022-09-24T09:13:38;20.27;;;14.18;;
35372;SDS011;21476;51.652;7.852;2022-09-24T09:16:15;20.63;;;15.77;;
35372;SDS011;21476;51.652;7.852;2022-09-24T09:18:43;20.08;;;14.05;;
35372;SDS011;21476;51.652;7.852;2022-09-24T09:21:26;20.23;;;14.38;;
35372;SDS011;21476;51.652;7.852;2022-09-24T09:23:54;18.77;;;14.02;;
35372;SDS011;21476;51.652;7.852;2022-09-24T09:26:21;20.05;;;13.82;;
35372;SDS011;21476;51.652;7.852;2022-09-24T09:28:47;21.10;;;14.18;;
35372;SDS011;21476;51.652;7.852;2022-09-24T09:38:53;21.45;;;14.07;;
35372;SDS011;21476;51.652;7.852;2022-09-24T09:41:44;20.85;;;13.70;;
35372;SDS011;21476;51.652;7.852;2022-09-24T09:44:25;21.75;;;15.02;;
35372;SDS011;21476;51.652;7.852;2022-09-24T09:46:54;20.40;;;14.63;;
35372;SDS011;21476;51.652;7.852;2022-09-24T09:49:29;16.20;;;11.57;;
35372;SDS011;21476;51.652;7.852;2022-09-24T09:51:59;21.42;;;13.20;;
35372;SDS011;21476;51.652;7.852;2022-09-24T09:54:37;19.83;;;13.05;;
35372;SDS011;21476;51.652;7.852;2022-09-24T09:57:04;20.63;;;14.30;;
35372;SDS011;21476;51.652;7.852;2022-09-24T09:59:31;19.25;;;13.85;;
35372;SDS011;21476;51.652;7.852;2022-09-24T10:01:59;22.60;;;13.90;;
35372;SDS011;21476;51.652;7.852;2022-09-24T10:09:35;20.48;;;13.73;;
35372;SDS011;21476;51.652;7.852;2022-09-24T10:12:07;19.30;;;13.63;;
35372;SDS011;21476;51.652;7.852;2022-09-24T10:14:37;20.92;;;13.55;;
35372;SDS011;21476;51.652;7.852;2022-09-24T10:17:03;27.92;;;14.57;;
35372;SDS011;21476;51.652;7.852;2022-09-24T10:19:29;21.75;;;15.45;;
35372;SDS011;21476;51.652;7.852;2022-09-24T10:22:06;22.95;;;16.10;;
35372;SDS011;21476;51.652;7.852;2022-09-24T10:24:35;22.75;;;13.63;;
35372;SDS011;21476;51.652;7.852;2022-09-24T10:27:11;23.23;;;15.05;;
35372;SDS011;21476;51.652;7.852;2022-09-24T10:29:38;24.85;;;16.08;;
35372;SDS011;21476;51.652;7.852;2022-09-24T10:32:24;23.80;;;16.50;;
35372;SDS011;21476;51.652;7.852;2022-09-24T10:35:02;26.13;;;15.73;;
35372;SDS011;21476;51.652;7.852;2022-09-24T10:37:54;23.02;;;15.45;;
35372;SDS011;21476;51.652;7.852;2022-09-24T10:40:22;26.23;;;17.35;;
35372;SDS011;21476;51.652;7.852;2022-09-24T10:42:59;21.88;;;15.50;;
35372;SDS011;21476;51.652;7.852;2022-09-24T10:45:48;24.17;;;17.35;;
35372;SDS011;21476;51.652;7.852;2022-09-24T11:00:10;22.02;;;13.85;;
35372;SDS011;21476;51.652;7.852;2022-09-24T11:03:07;23.40;;;13.57;;
35372;SDS011;21476;51.652;7.852;2022-09-24T11:11:18;19.60;;;14.40;;
35372;SDS011;21476;51.652;7.852;2022-09-24T11:16:46;22.27;;;15.77;;
35372;SDS011;21476;51.652;7.852;2022-09-24T11:25:49;22.02;;;14.75;;
35372;SDS011;21476;51.652;7.852;2022-09-24T11:28:45;20.02;;;14.27;;
35372;SDS011;21476;51.652;7.852;2022-09-24T11:31:37;24.80;;;16.00;;
35372;SDS011;21476;51.652;7.852;2022-09-24T11:45:34;21.30;;;13.98;;
35372;SDS011;21476;51.652;7.852;2022-09-24T11:48:36;19.65;;;13.40;;
35372;SDS011;21476;51.652;7.852;2022-09-24T11:51:29;21.15;;;13.50;;
35372;SDS011;21476;51.652;7.852;2022-09-24T11:54:16;22.10;;;15.23;;
35372;SDS011;21476;51.652;7.852;2022-09-24T11:56:48;21.63;;;14.48;;
35372;SDS011;21476;51.652;7.852;2022-09-24T12:02:12;23.42;;;15.38;;
35372;SDS011;21476;51.652;7.852;2022-09-24T12:04:59;24.30;;;14.75;;
35372;SDS011;21476;51.652;7.852;2022-09-24T12:07:33;20.23;;;14.02;;
35372;SDS011;21476;51.652;7.852;2022-09-24T12:10:27;19.90;;;14.88;;
35372;SDS011;21476;51.652;7.852;2022-09-24T12:16:05;19.65;;;15.15;;
35372;SDS011;21476;51.652;7.852;2022-09-24T12:18:43;23.83;;;16.92;;
35372;SDS011;21476;51.652;7.852;2022-09-24T12:21:31;24.67;;;16.95;;
35372;SDS011;21476;51.652;7.852;2022-09-24T12:24:05;25.88;;;17.33;;
35372;SDS011;21476;51.652;7.852;2022-09-24T12:26:47;27.00;;;18.98;;
35372;SDS011;21476;51.652;7.852;2022-09-24T12:32:26;22.75;;;18.42;;
35372;SDS011;21476;51.652;7.852;2022-09-24T12:37:54;22.98;;;18.38;;
35372;SDS011;21476;51.652;7.852;2022-09-24T12:43:20;24.65;;;18.67;;
35372;SDS011;21476;51.652;7.852;2022-09-24T12:45:55;24.05;;;18.15;;
35372;SDS011;21476;51.652;7.852;2022-09-24T12:48:26;25.42;;;18.63;;
35372;SDS011;21476;51.652;7.852;2022-09-24T12:50:55;23.77;;;18.65;;
35372;SDS011;21476;51.652;7.852;2022-09-24T12:53:23;29.20;;;19.98;;
35372;SDS011;21476;51.652;7.852;2022-09-24T12:55:57;25.95;;;18.90;;
35372;SDS011;21476;51.652;7.852;2022-09-24T13:06:38;24.80;;;18.55;;
35372;SDS011;21476;51.652;7.852;2022-09-24T13:12:00;25.23;;;19.75;;
35372;SDS011;21476;51.652;7.852;2022-09-24T13:14:55;31.73;;;23.40;;
35372;SDS011;21476;51.652;7.852;2022-09-24T13:17:26;33.67;;;23.38;;
35372;SDS011;21476;51.652;7.852;2022-09-24T13:19:55;36.35;;;25.92;;
35372;SDS011;21476;51.652;7.852;2022-09-24T13:27:38;30.02;;;23.02;;
35372;SDS011;21476;51.652;7.852;2022-09-24T13:30:16;32.45;;;24.90;;
35372;SDS011;21476;51.652;7.852;2022-09-24T13:33:26;30.92;;;23.15;;
35372;SDS011;21476;51.652;7.852;2022-09-24T13:38:48;28.25;;;22.38;;
35372;SDS011;21476;51.652;7.852;2022-09-24T13:41:26;29.58;;;23.00;;
35372;SDS011;21476;51.652;7.852;2022-09-24T13:49:36;39.38;;;30.13;;
35372;SDS011;21476;51.652;7.852;2022-09-24T13:52:14;35.35;;;28.85;;
35372;SDS011;21476;51.652;7.852;2022-09-24T13:54:53;31.10;;;23.85;;
35372;SDS011;21476;51.652;7.852;2022-09-24T13:57:24;29.48;;;22.67;;
35372;SDS011;21476;51.652;7.852;2022-09-24T14:03:03;27.55;;;22.40;;
35372;SDS011;21476;51.652;7.852;2022-09-24T14:05:42;27.73;;;21.95;;
35372;SDS011;21476;51.652;7.852;2022-09-24T14:08:10;30.92;;;25.38;;
35372;SDS011;21476;51.652;7.852;2022-09-24T14:10:39;38.08;;;26.75;;
35372;SDS011;21476;51.652;7.852;2022-09-24T14:13:13;37.40;;;28.25;;
35372;SDS011;21476;51.652;7.852;2022-09-24T14:15:54;30.70;;;22.70;;
35372;SDS011;21476;51.652;7.852;2022-09-24T14:18:22;31.10;;;24.90;;
35372;SDS011;21476;51.652;7.852;2022-09-24T14:21:34;26.58;;;22.20;;
35372;SDS011;21476;51.652;7.852;2022-09-24T14:23:48;31.15;;;23.83;;
35372;SDS011;21476;51.652;7.852;2022-09-24T14:28:48;36.45;;;23.45;;
35372;SDS011;21476;51.652;7.852;2022-09-24T14:31:14;25.67;;;20.83;;
35372;SDS011;21476;51.652;7.852;2022-09-24T14:33:40;26.85;;;21.88;;
35372;SDS011;21476;51.652;7.852;2022-09-24T14:36:08;30.23;;;22.92;;
35372;SDS011;21476;51.652;7.852;2022-09-24T14:38:41;28.75;;;22.27;;
35372;SDS011;21476;51.652;7.852;2022-09-24T14:41:29;27.05;;;20.55;;
35372;SDS011;21476;51.652;7.852;2022-09-24T14:43:58;25.73;;;20.02;;
35372;SDS011;21476;51.652;7.852;2022-09-24T14:46:34;27.13;;;21.85;;
35372;SDS011;21476;51.652;7.852;2022-09-24T14:49:18;25.95;;;21.27;;
35372;SDS011;21476;51.652;7.852;2022-09-24T14:51:56;29.02;;;22.08;;
35372;SDS011;21476;51.652;7.852;2022-09-24T14:54:36;26.42;;;21.60;;
35372;SDS011;21476;51.652;7.852;2022-09-24T14:57:11;25.17;;;19.88;;
35372;SDS011;21476;51.652;7.852;2022-09-24T14:59:48;23.52;;;19.42;;
35372;SDS011;21476;51.652;7.852;2022-09-24T15:04:54;23.73;;;18.83;;
35372;SDS011;21476;51.652;7.852;2022-09-24T15:07:26;22.10;;;17.75;;
35372;SDS011;21476;51.652;7.852;2022-09-24T15:09:53;25.88;;;18.27;;
35372;SDS011;21476;51.652;7.852;2022-09-24T15:12:27;21.60;;;17.25;;
35372;SDS011;21476;51.652;7.852;2022-09-24T15:14:56;21.73;;;16.40;;
35372;SDS011;21476;51.652;7.852;2022-09-24T15:17:23;21.70;;;18.45;;
35372;SDS011;21476;51.652;7.852;2022-09-24T15:19:53;22.20;;;17.83;;
35372;SDS011;21476;51.652;7.852;2022-09-24T15:22:20;22.60;;;18.45;;
35372;SDS011;21476;51.652;7.852;2022-09-24T15:24:47;21.85;;;19.40;;
35372;SDS011;21476;51.652;7.852;2022-09-24T15:27:30;25.10;;;18.15;;
35372;SDS011;21476;51.652;7.852;2022-09-24T15:32:26;23.48;;;19.35;;
35372;SDS011;21476;51.652;7.852;2022-09-24T15:34:55;22.23;;;19.38;;
35372;SDS011;21476;51.652;7.852;2022-09-24T15:37:22;26.35;;;22.10;;
35372;SDS011;21476;51.652;7.852;2022-09-24T15:39:49;25.50;;;19.42;;
35372;SDS011;21476;51.652;7.852;2022-09-24T15:42:20;23.08;;;19.45;;
35372;SDS011;21476;51.652;7.852;2022-09-24T15:44:47;26.67;;;20.02;;
35372;SDS011;21476;51.652;7.852;2022-09-24T15:47:15;26.00;;;19.48;;
35372;SDS011;21476;51.652;7.852;2022-09-24T15:49:41;25.67;;;19.20;;
35372;SDS011;21476;51.652;7.852;2022-09-24T15:52:10;26.50;;;20.15;;
35372;SDS011;21476;51.652;7.852;2022-09-24T15:54:57;23.70;;;19.00;;
35372;SDS011;21476;51.652;7.852;2022-09-24T15:57:24;24.58;;;19.55;;
35372;SDS011;21476;51.652;7.852;2022-09-24T15:59:50;25.20;;;20.77;;
35372;SDS011;21476;51.652;7.852;2022-09-24T16:02:20;27.02;;;19.50;;
35372;SDS011;21476;51.652;7.852;2022-09-24T16:04:49;25.30;;;19.52;;
35372;SDS011;21476;51.652;7.852;2022-09-24T16:07:15;25.60;;;20.50;;
35372;SDS011;21476;51.652;7.852;2022-09-24T16:09:42;25.63;;;20.48;;
35372;SDS011;21476;51.652;7.852;2022-09-24T16:12:09;23.05;;;18.73;;
35372;SDS011;21476;51.652;7.852;2022-09-24T16:14:39;23.63;;;19.02;;
35372;SDS011;21476;51.652;7.852;2022-09-24T16:17:05;25.30;;;20.35;;
35372;SDS011;21476;51.652;7.852;2022-09-24T16:19:30;23.85;;;19.02;;
35372;SDS011;21476;51.652;7.852;2022-09-24T16:21:56;25.13;;;21.08;;
35372;SDS011;21476;51.652;7.852;2022-09-24T16:24:23;26.70;;;22.02;;
35372;SDS011;21476;51.652;7.852;2022-09-24T16:26:49;26.38;;;20.98;;
35372;SDS011;21476;51.652;7.852;2022-09-24T16:29:15;25.45;;;20.58;;
35372;SDS011;21476;51.652;7.852;2022-09-24T16:31:42;27.70;;;22.85;;
35372;SDS011;21476;51.652;7.852;2022-09-24T16:34:11;27.75;;;20.90;;
35372;SDS011;21476;51.652;7.852;2022-09-24T16:36:36;32.75;;;24.20;;
35372;SDS011;21476;51.652;7.852;2022-09-24T16:39:05;30.00;;;23.98;;
35372;SDS011;21476;51.652;7.852;2022-09-24T16:41:34;28.08;;;23.33;;
35372;SDS011;21476;51.652;7.852;2022-09-24T16:44:02;30.98;;;25.30;;
35372;SDS011;21476;51.652;7.852;2022-09-24T16:46:28;30.20;;;26.65;;
35372;SDS011;21476;51.652;7.852;2022-09-24T16:48:54;32.13;;;26.98;;
35372;SDS011;21476;51.652;7.852;2022-09-24T16:51:20;32.70;;;26.52;;
35372;SDS011;21476;51.652;7.852;2022-09-24T16:53:45;30.05;;;24.52;;